Time;durP1;ratioP1;P1;durP2;ratioP2;P2;SDS_P1;SDS_P2;PMS_P1;PMS_P2;Temp;Humidity;BMP_temperature;BMP_pressure;BME280_temperature;BME280_humidity;BME280_pressure;Samples;Min_cycle;Max_cycle;Signal;HPM_P1;HPM_P2
2021/04/16 00:03:51;;;;;;;0.30;0.30;;;;;;;;;;10296667;28;20060;-63
2021/04/16 00:08:48;;;;;;;0.53;0.43;;;;;;;;;;10297391;28;20032;-61
2021/04/16 00:13:46;;;;;;;0.93;0.50;;;;;;;;;;10288985;28;20103;-63
2021/04/16 00:18:44;;;;;;;1.40;0.77;;;;;;;;;;10296944;28;20031;-63
2021/04/16 00:23:41;;;;;;;0.50;0.50;;;;;;;;;;10295025;28;20033;-64
2021/04/16 00:28:39;;;;;;;2.63;1.10;;;;;;;;;;10317414;28;21398;-64
2021/04/16 00:33:37;;;;;;;0.75;0.60;;;;;;;;;;10320349;28;20091;-64
2021/04/16 00:38:34;;;;;;;2.47;0.63;;;;;;;;;;10315581;28;20094;-64
2021/04/16 00:43:33;;;;;;;0.33;0.33;;;;;;;;;;10309851;28;20032;-64
2021/04/16 00:48:32;;;;;;;1.60;1.15;;;;;;;;;;10312718;28;20049;-64
2021/04/16 00:53:31;;;;;;;1.58;0.98;;;;;;;;;;10321572;28;20040;-64
2021/04/16 00:58:30;;;;;;;2.25;1.27;;;;;;;;;;10319715;28;20512;-64
2021/04/16 01:03:27;;;;;;;2.97;1.02;;;;;;;;;;10321406;28;20485;-65
2021/04/16 01:08:25;;;;;;;0.47;0.47;;;;;;;;;;10321094;28;20060;-64
2021/04/16 01:13:23;;;;;;;1.30;0.83;;;;;;;;;;10315336;28;20064;-63
2021/04/16 01:18:22;;;;;;;1.95;0.68;;;;;;;;;;10319510;28;20376;-64
2021/04/16 01:23:35;;;;;;;1.27;0.90;;;;;;;;;;10322586;28;20037;-64
2021/04/16 01:28:33;;;;;;;1.15;1.02;;;;;;;;;;10319571;28;20058;-63
2021/04/16 01:33:32;;;;;;;0.40;0.37;;;;;;;;;;10326689;28;20039;-64
2021/04/16 01:38:29;;;;;;;0.50;0.45;;;;;;;;;;10327913;28;21423;-63
2021/04/16 01:43:28;;;;;;;2.80;1.10;;;;;;;;;;10316086;28;20345;-63
2021/04/16 01:48:33;;;;;;;1.80;0.90;;;;;;;;;;10322696;28;20502;-65
2021/04/16 01:53:31;;;;;;;1.75;1.50;;;;;;;;;;10320411;28;20025;-63
2021/04/16 01:58:28;;;;;;;1.10;1.00;;;;;;;;;;10323363;28;20025;-63
2021/04/16 02:03:25;;;;;;;2.00;1.23;;;;;;;;;;10326603;28;20039;-63
2021/04/16 02:08:23;;;;;;;1.67;0.87;;;;;;;;;;10322327;28;20033;-64
2021/04/16 02:13:20;;;;;;;0.73;0.67;;;;;;;;;;10321729;28;20123;-62
2021/04/16 02:18:18;;;;;;;0.80;0.80;;;;;;;;;;10321733;28;20445;-64
2021/04/16 02:23:15;;;;;;;5.17;1.00;;;;;;;;;;10320687;28;20035;-63
2021/04/16 02:28:13;;;;;;;1.00;0.67;;;;;;;;;;10320948;28;20087;-62
2021/04/16 02:33:10;;;;;;;5.43;0.80;;;;;;;;;;10322905;28;20067;-62
2021/04/16 02:38:08;;;;;;;0.40;0.40;;;;;;;;;;10319521;28;20040;-61
2021/04/16 02:43:05;;;;;;;0.47;0.47;;;;;;;;;;10315936;28;20025;-62
2021/04/16 02:48:03;;;;;;;1.70;0.73;;;;;;;;;;10317731;28;20492;-62
2021/04/16 02:53:00;;;;;;;1.17;0.80;;;;;;;;;;10283707;28;20557;-62
2021/04/16 02:57:57;;;;;;;0.73;0.53;;;;;;;;;;10273280;28;20835;-62
2021/04/16 03:02:55;;;;;;;5.07;0.43;;;;;;;;;;10279776;28;20529;-61
2021/04/16 03:07:53;;;;;;;1.37;0.60;;;;;;;;;;10275973;28;20285;-63
2021/04/16 03:12:50;;;;;;;3.13;1.00;;;;;;;;;;10313950;28;20021;-63
2021/04/16 03:17:48;;;;;;;0.40;0.40;;;;;;;;;;10317054;28;20044;-61
2021/04/16 03:22:45;;;;;;;0.40;0.40;;;;;;;;;;10312570;28;20536;-62
2021/04/16 03:27:43;;;;;;;0.93;0.60;;;;;;;;;;10318994;28;20032;-61
2021/04/16 03:32:40;;;;;;;1.40;1.20;;;;;;;;;;10316175;28;20060;-64
2021/04/16 03:37:38;;;;;;;0.30;0.30;;;;;;;;;;10315792;28;20044;-63
2021/04/16 03:42:35;;;;;;;0.63;0.63;;;;;;;;;;10314290;28;20363;-62
2021/04/16 03:47:32;;;;;;;0.87;0.87;;;;;;;;;;10319345;28;20049;-63
2021/04/16 03:52:30;;;;;;;1.13;0.37;;;;;;;;;;10317919;28;20035;-62
2021/04/16 03:57:27;;;;;;;0.93;0.60;;;;;;;;;;10313034;28;20068;-63
2021/04/16 04:02:25;;;;;;;2.20;0.73;;;;;;;;;;10317221;28;20395;-62
2021/04/16 04:07:22;;;;;;;0.53;0.53;;;;;;;;;;10317056;28;20048;-61
2021/04/16 04:12:20;;;;;;;0.83;0.80;;;;;;;;;;10311758;28;20040;-61
2021/04/16 04:17:25;;;;;;;0.63;0.53;;;;;;;;;;10316771;28;20102;-61
2021/04/16 04:22:23;;;;;;;1.58;0.52;;;;;;;;;;10294989;28;20599;-62
2021/04/16 04:27:20;;;;;;;1.43;1.17;;;;;;;;;;10309135;28;20557;-62
2021/04/16 04:32:18;;;;;;;0.83;0.63;;;;;;;;;;10301603;28;20521;-63
2021/04/16 04:37:15;;;;;;;2.67;1.23;;;;;;;;;;10313878;28;20037;-63
2021/04/16 04:42:13;;;;;;;2.13;0.50;;;;;;;;;;10313886;28;20038;-61
2021/04/16 04:47:10;;;;;;;1.77;0.43;;;;;;;;;;10304869;28;20064;-61
2021/04/16 04:52:08;;;;;;;0.33;0.33;;;;;;;;;;10318511;23;20049;-66
2021/04/16 04:57:05;;;;;;;0.83;0.63;;;;;;;;;;10307042;28;20282;-66
2021/04/16 05:02:03;;;;;;;3.20;0.30;;;;;;;;;;10294017;28;20041;-66
2021/04/16 05:07:00;;;;;;;0.83;0.83;;;;;;;;;;10298036;28;20045;-66
2021/04/16 05:11:58;;;;;;;0.83;0.83;;;;;;;;;;10289195;28;20295;-67
2021/04/16 05:16:56;;;;;;;2.07;0.90;;;;;;;;;;10288906;28;20029;-67
2021/04/16 05:21:56;;;;;;;4.40;0.90;;;;;;;;;;10304807;23;20103;-67
2021/04/16 05:26:54;;;;;;;2.33;0.80;;;;;;;;;;10257224;28;20033;-65
2021/04/16 05:31:51;;;;;;;1.80;1.00;;;;;;;;;;10273752;28;20037;-64
2021/04/16 05:36:49;;;;;;;0.80;0.80;;;;;;;;;;10281695;28;20038;-63
2021/04/16 05:41:46;;;;;;;1.17;0.83;;;;;;;;;;10286556;28;20041;-64
2021/04/16 05:46:44;;;;;;;0.60;0.60;;;;;;;;;;10284609;28;20681;-65
2021/04/16 05:51:41;;;;;;;6.10;1.03;;;;;;;;;;10268839;23;20051;-62
2021/04/16 05:56:38;;;;;;;0.57;0.57;;;;;;;;;;10289427;28;20064;-62
2021/04/16 06:01:36;;;;;;;1.47;0.90;;;;;;;;;;10291765;28;20067;-63
2021/04/16 06:06:33;;;;;;;2.87;1.17;;;;;;;;;;10286020;28;20399;-63
2021/04/16 06:11:31;;;;;;;3.77;1.17;;;;;;;;;;10287835;28;20095;-63
2021/04/16 06:16:28;;;;;;;1.23;1.10;;;;;;;;;;10288240;28;20087;-63
2021/04/16 06:21:26;;;;;;;1.57;1.00;;;;;;;;;;10280698;22;20579;-67
2021/04/16 06:26:24;;;;;;;2.37;1.33;;;;;;;;;;10258466;28;20053;-67
2021/04/16 06:31:23;;;;;;;2.42;1.05;;;;;;;;;;10265807;28;20028;-67
2021/04/16 06:36:21;;;;;;;0.90;0.80;;;;;;;;;;10283202;28;20026;-66
2021/04/16 06:41:21;;;;;;;1.20;0.85;;;;;;;;;;10285050;28;20913;-66
2021/04/16 06:46:27;;;;;;;1.85;1.10;;;;;;;;;;10287908;28;20025;-65
2021/04/16 06:51:25;;;;;;;3.15;1.25;;;;;;;;;;10257911;28;20037;-66
2021/04/16 06:56:29;;;;;;;1.95;0.80;;;;;;;;;;10282980;28;20041;-65
2021/04/16 07:01:34;;;;;;;2.17;1.45;;;;;;;;;;10280587;22;20046;-64
2021/04/16 07:06:32;;;;;;;0.52;0.50;;;;;;;;;;10245800;28;20033;-64
2021/04/16 07:11:30;;;;;;;1.07;0.63;;;;;;;;;;10245980;28;20099;-61
2021/04/16 07:16:30;;;;;;;1.75;0.70;;;;;;;;;;10237317;28;20045;-64
2021/04/16 07:21:28;;;;;;;1.17;0.77;;;;;;;;;;10268817;28;20041;-62
2021/04/16 07:26:43;;;;;;;1.47;0.90;;;;;;;;;;10277025;28;20036;-64
2021/04/16 07:36:45;;;;;;;1.15;0.88;;;;;;;;;;10282180;28;20124;-62
2021/04/16 07:41:44;;;;;;;1.73;1.07;;;;;;;;;;10280268;28;20143;-61
2021/04/16 07:46:41;;;;;;;0.65;0.65;;;;;;;;;;10283674;28;20391;-62
2021/04/16 07:51:40;;;;;;;0.63;0.63;;;;;;;;;;10271310;28;20546;-62
2021/04/16 07:56:37;;;;;;;1.80;1.15;;;;;;;;;;10267661;28;20034;-62
2021/04/16 08:01:38;;;;;;;6.43;1.17;;;;;;;;;;10272497;28;20045;-65
2021/04/16 08:06:37;;;;;;;3.88;1.58;;;;;;;;;;10275559;28;20551;-63
2021/04/16 08:11:35;;;;;;;0.65;0.60;;;;;;;;;;10278514;28;20052;-65
2021/04/16 08:16:42;;;;;;;0.93;0.43;;;;;;;;;;10279623;28;20037;-62
2021/04/16 08:21:43;;;;;;;2.95;0.85;;;;;;;;;;10279922;28;20049;-63
2021/04/16 08:26:43;;;;;;;4.28;0.98;;;;;;;;;;10271570;28;20099;-63
2021/04/16 08:31:45;;;;;;;1.25;1.10;;;;;;;;;;10279626;28;20037;-63
2021/04/16 08:36:44;;;;;;;4.10;1.02;;;;;;;;;;10279666;28;20183;-64
2021/04/16 08:41:51;;;;;;;2.88;1.55;;;;;;;;;;10283914;28;20037;-64
2021/04/16 08:46:50;;;;;;;1.70;1.08;;;;;;;;;;10295010;28;20504;-62
2021/04/16 08:51:50;;;;;;;4.32;0.52;;;;;;;;;;10293867;28;20095;-65
2021/04/16 08:56:54;;;;;;;3.60;1.27;;;;;;;;;;10276084;28;20028;-64
2021/04/16 09:01:57;;;;;;;1.15;1.00;;;;;;;;;;10272824;28;20098;-63
2021/04/16 09:06:56;;;;;;;15.63;1.55;;;;;;;;;;10279551;28;20042;-63
2021/04/16 09:11:54;;;;;;;3.55;1.25;;;;;;;;;;10285544;28;20041;-62
2021/04/16 09:16:54;;;;;;;1.20;0.93;;;;;;;;;;10286728;28;20041;-63
2021/04/16 09:27:03;;;;;;;0.98;0.65;;;;;;;;;;10289652;28;20094;-63
2021/04/16 09:32:03;;;;;;;2.85;1.05;;;;;;;;;;10287767;28;20510;-63
2021/04/16 09:37:19;;;;;;;1.58;0.73;;;;;;;;;;10270449;28;20074;-63
2021/04/16 09:42:45;;;;;;;1.98;1.25;;;;;;;;;;10235733;28;20586;-62
2021/04/16 09:47:48;;;;;;;2.03;1.00;;;;;;;;;;10245417;28;20046;-63
2021/04/16 09:52:48;;;;;;;2.10;1.23;;;;;;;;;;10260477;28;20038;-63
2021/04/16 09:57:45;;;;;;;1.65;0.93;;;;;;;;;;10274983;28;20025;-63
2021/04/16 10:02:42;;;;;;;5.17;1.73;;;;;;;;;;10261958;28;20042;-62
2021/04/16 10:07:40;;;;;;;0.63;0.53;;;;;;;;;;10251281;28;20026;-61
2021/04/16 10:12:39;;;;;;;1.23;0.73;;;;;;;;;;10247862;28;20034;-61
2021/04/16 10:17:37;;;;;;;4.95;2.25;;;;;;;;;;10277426;28;20166;-62
2021/04/16 10:22:36;;;;;;;2.45;1.05;;;;;;;;;;10289824;28;20496;-62
2021/04/16 12:40:14;;;;;;;14.70;5.95;;;;;;;;;;10274303;28;20037;-64
2021/04/16 12:45:13;;;;;;;18.65;5.60;;;;;;;;;;10287919;28;20083;-63
2021/04/16 12:50:12;;;;;;;31.10;7.57;;;;;;;;;;10279980;28;20068;-64
2021/04/16 12:55:09;;;;;;;23.77;6.05;;;;;;;;;;10270400;28;20803;-64
2021/04/16 13:00:07;;;;;;;;;;;;;;;;;;10292928;28;20045;-65
2021/04/16 13:05:06;;;;;;;3.70;1.80;;;;;;;;;;10262973;28;19913;-65
2021/04/16 13:10:08;;;;;;;4.57;1.83;;;;;;;;;;10285329;28;20042;-65
2021/04/16 13:15:06;;;;;;;5.20;2.08;;;;;;;;;;10272294;28;20041;-65
2021/04/16 13:20:03;;;;;;;;;;;;;;;;;;10291885;28;20041;-66
2021/04/16 13:25:01;;;;;;;2.40;1.00;;;;;;;;;;10282048;28;20390;-66
2021/04/16 13:29:58;;;;;;;2.73;0.80;;;;;;;;;;10253635;28;20041;-66
2021/04/16 13:34:57;;;;;;;2.40;0.60;;;;;;;;;;10250278;28;20269;-64
2021/04/16 13:39:54;;;;;;;1.70;0.70;;;;;;;;;;10251572;28;20121;-65
2021/04/16 13:44:51;;;;;;;;;;;;;;;;;;10251953;28;20164;-64
2021/04/16 13:49:49;;;;;;;2.22;0.65;;;;;;;;;;10254181;28;19925;-65
2021/04/16 13:54:48;;;;;;;;;;;;;;;;;;10260309;28;20029;-64
2021/04/16 13:59:46;;;;;;;1.23;0.73;;;;;;;;;;10260221;28;19957;-65
2021/04/16 14:04:44;;;;;;;;;;;;;;;;;;10286203;28;20049;-64
2021/04/16 14:09:41;;;;;;;1.80;0.80;;;;;;;;;;10296495;28;19992;-64
2021/04/16 14:14:38;;;;;;;;;;;;;;;;;;10250494;28;20088;-65
2021/04/16 14:20:00;;;;;;;0.40;0.30;;;;;;;;;;10216787;28;19917;-65
2021/04/16 14:24:57;;;;;;;0.57;0.25;;;;;;;;;;10232745;28;20037;-65
2021/04/16 14:29:55;;;;;;;1.40;0.70;;;;;;;;;;10238779;28;20048;-63
2021/04/16 14:34:52;;;;;;;0.97;0.50;;;;;;;;;;10255975;28;20037;-64
2021/04/16 14:39:49;;;;;;;1.10;0.70;;;;;;;;;;10253842;28;20045;-64
2021/04/16 14:44:47;;;;;;;;;;;;;;;;;;10241737;28;20040;-64
2021/04/16 14:49:44;;;;;;;5.73;1.10;;;;;;;;;;10295564;28;20341;-64
2021/04/16 14:54:44;;;;;;;0.20;0.20;;;;;;;;;;10287515;28;20015;-64
2021/04/16 14:59:43;;;;;;;2.08;0.45;;;;;;;;;;10287671;28;20292;-64
2021/04/16 15:04:40;;;;;;;0.73;0.28;;;;;;;;;;10272496;28;20445;-63
2021/04/16 15:09:41;;;;;;;1.50;0.50;;;;;;;;;;10276351;28;20169;-64
2021/04/16 15:14:38;;;;;;;1.05;0.60;;;;;;;;;;10285742;28;20104;-64
2021/04/16 15:19:44;;;;;;;4.07;0.77;;;;;;;;;;10258281;28;20125;-64
2021/04/16 15:24:42;;;;;;;0.73;0.50;;;;;;;;;;10242745;28;20026;-64
2021/04/16 15:29:41;;;;;;;4.25;0.82;;;;;;;;;;10226573;28;20077;-64
2021/04/16 15:50:28;;;;;;;0.47;0.30;;;;;;;;;;10241937;28;20100;-64
2021/04/16 15:55:25;;;;;;;1.17;0.60;;;;;;;;;;10258290;28;20033;-63
2021/04/16 16:00:29;;;;;;;1.40;0.47;;;;;;;;;;10278159;28;20033;-65
2021/04/16 16:05:26;;;;;;;4.13;0.63;;;;;;;;;;10279104;28;20275;-63
2021/04/16 16:10:24;;;;;;;1.47;0.30;;;;;;;;;;10273645;28;20038;-64
2021/04/16 16:15:24;;;;;;;1.87;0.60;;;;;;;;;;10282555;28;20116;-65
2021/04/16 16:20:24;;;;;;;4.07;1.63;;;;;;;;;;10293455;28;20502;-65
2021/04/16 16:25:21;;;;;;;2.53;1.55;;;;;;;;;;10277721;28;21683;-64
2021/04/16 16:30:21;;;;;;;3.53;0.93;;;;;;;;;;10267450;28;20451;-64
2021/04/16 16:35:21;;;;;;;3.78;0.95;;;;;;;;;;10267687;28;20034;-64
2021/04/16 16:40:20;;;;;;;2.95;0.77;;;;;;;;;;10264473;28;20132;-63
2021/04/16 16:45:20;;;;;;;1.70;0.28;;;;;;;;;;10248609;28;20061;-64
2021/04/16 16:50:19;;;;;;;0.52;0.40;;;;;;;;;;10271337;28;20040;-63
2021/04/16 16:55:17;;;;;;;4.63;0.70;;;;;;;;;;10263309;28;20030;-64
2021/04/16 17:00:19;;;;;;;2.30;0.90;;;;;;;;;;10281595;28;20042;-64
2021/04/16 17:05:18;;;;;;;5.25;2.00;;;;;;;;;;10298945;28;20548;-65
2021/04/16 17:10:16;;;;;;;1.08;0.80;;;;;;;;;;10273876;28;20084;-64
2021/04/16 17:15:15;;;;;;;4.45;1.92;;;;;;;;;;10284294;28;20060;-63
2021/04/16 17:20:13;;;;;;;1.40;1.27;;;;;;;;;;10255750;28;20476;-63
2021/04/16 17:25:11;;;;;;;1.07;0.80;;;;;;;;;;10292111;28;20029;-65
2021/04/16 17:30:27;;;;;;;1.58;0.82;;;;;;;;;;10275534;28;20033;-62
2021/04/16 17:35:26;;;;;;;2.03;0.75;;;;;;;;;;10279835;28;20410;-64
2021/04/16 17:40:25;;;;;;;3.28;0.55;;;;;;;;;;10290811;28;20052;-65
2021/04/16 17:45:24;;;;;;;2.78;1.02;;;;;;;;;;10285348;28;20097;-65
2021/04/16 17:50:29;;;;;;;1.05;0.38;;;;;;;;;;10291411;28;20028;-65
2021/04/16 17:55:26;;;;;;;1.92;0.80;;;;;;;;;;10268640;28;20026;-65
2021/04/16 18:00:26;;;;;;;4.93;1.10;;;;;;;;;;10275546;28;20049;-65
2021/04/16 18:05:25;;;;;;;2.28;0.90;;;;;;;;;;10233671;28;25366;-65
2021/04/16 18:10:24;;;;;;;1.05;0.60;;;;;;;;;;10247315;28;20037;-64
2021/04/16 18:15:23;;;;;;;4.70;1.60;;;;;;;;;;10249760;28;20060;-64
2021/04/16 18:20:21;;;;;;;4.57;0.50;;;;;;;;;;10275816;28;20037;-63
2021/04/16 18:25:18;;;;;;;1.60;0.38;;;;;;;;;;10238381;28;20399;-64
2021/04/16 18:30:42;;;;;;;2.63;0.80;;;;;;;;;;10281501;28;20029;-63
2021/04/16 18:35:40;;;;;;;5.13;0.52;;;;;;;;;;10247243;28;20045;-63
2021/04/16 18:40:43;;;;;;;4.05;1.23;;;;;;;;;;10246981;28;20089;-63
2021/04/16 18:45:41;;;;;;;1.95;0.50;;;;;;;;;;10236088;28;20034;-63
2021/04/16 18:50:39;;;;;;;5.18;1.00;;;;;;;;;;10235217;28;20171;-63
2021/04/16 18:55:36;;;;;;;1.77;0.63;;;;;;;;;;10259231;28;20056;-63
2021/04/16 19:00:36;;;;;;;3.60;1.43;;;;;;;;;;10289534;28;20053;-63
2021/04/16 19:05:34;;;;;;;2.17;1.17;;;;;;;;;;10289404;28;20033;-65
2021/04/16 19:10:32;;;;;;;3.47;1.27;;;;;;;;;;10288290;28;20030;-65
2021/04/16 19:15:30;;;;;;;4.03;1.70;;;;;;;;;;10249302;28;20045;-63
2021/04/16 19:20:30;;;;;;;4.07;1.13;;;;;;;;;;10209269;28;20057;-64
2021/04/16 19:25:38;;;;;;;7.53;1.08;;;;;;;;;;10221283;28;20054;-64
2021/04/16 19:30:41;;;;;;;0.63;0.63;;;;;;;;;;10227326;28;20041;-63
2021/04/16 19:35:39;;;;;;;2.17;0.70;;;;;;;;;;10223132;28;20125;-63
2021/04/16 19:40:45;;;;;;;5.25;1.35;;;;;;;;;;10214391;28;20104;-63
2021/04/16 19:45:43;;;;;;;3.28;1.20;;;;;;;;;;10215418;28;20050;-64
2021/04/16 20:17:08;;;;;;;6.95;1.27;;;;;;;;;;10203263;28;20065;-63
2021/04/16 20:22:06;;;;;;;1.25;0.82;;;;;;;;;;10237113;28;20045;-65
2021/04/16 20:27:12;;;;;;;2.20;1.17;;;;;;;;;;10207184;28;20045;-64
2021/04/16 20:32:11;;;;;;;1.25;1.00;;;;;;;;;;10215830;28;20038;-63
2021/04/16 20:37:09;;;;;;;0.70;0.60;;;;;;;;;;10211518;28;20110;-63
2021/04/16 20:42:09;;;;;;;0.77;0.70;;;;;;;;;;10218766;28;20122;-63
2021/04/16 20:47:06;;;;;;;2.58;0.93;;;;;;;;;;10213245;28;20293;-64
2021/04/16 20:52:05;;;;;;;1.40;0.67;;;;;;;;;;10210194;28;20500;-64
2021/04/16 20:57:04;;;;;;;1.63;0.50;;;;;;;;;;10214911;28;20073;-63
2021/04/16 21:02:07;;;;;;;0.52;0.40;;;;;;;;;;10213804;28;20583;-64
2021/04/16 21:07:13;;;;;;;2.05;0.35;;;;;;;;;;10214710;28;20157;-65
2021/04/16 21:12:19;;;;;;;1.08;0.50;;;;;;;;;;10202795;28;20036;-64
2021/04/16 21:17:20;;;;;;;1.63;0.40;;;;;;;;;;10210236;28;20148;-64
2021/04/16 21:22:18;;;;;;;2.88;1.67;;;;;;;;;;10200399;28;20649;-65
2021/04/16 21:27:17;;;;;;;5.63;1.00;;;;;;;;;;10201641;28;20050;-64
2021/04/16 21:32:15;;;;;;;4.07;0.93;;;;;;;;;;10220613;28;20034;-65
2021/04/16 21:37:14;;;;;;;3.70;0.50;;;;;;;;;;10206507;28;20046;-64
2021/04/16 21:42:26;;;;;;;2.25;0.85;;;;;;;;;;10218798;28;20049;-63
2021/04/16 21:47:32;;;;;;;5.43;0.90;;;;;;;;;;10212719;28;20042;-63
2021/04/16 21:52:36;;;;;;;4.30;0.90;;;;;;;;;;10211836;28;20064;-63
2021/04/16 21:57:33;;;;;;;4.07;1.00;;;;;;;;;;10220776;28;20041;-64
2021/04/16 22:02:38;;;;;;;2.90;1.10;;;;;;;;;;10202336;28;20515;-63
2021/04/16 22:07:36;;;;;;;9.60;1.17;;;;;;;;;;10206486;28;20101;-62
2021/04/16 22:12:36;;;;;;;2.17;1.15;;;;;;;;;;10219194;28;20123;-64
2021/04/16 22:17:34;;;;;;;4.55;0.73;;;;;;;;;;10212476;28;20042;-63
2021/04/16 22:22:33;;;;;;;3.63;0.83;;;;;;;;;;10222321;28;20049;-64
2021/04/16 22:27:31;;;;;;;5.95;1.08;;;;;;;;;;10215628;28;20046;-63
2021/04/16 22:32:29;;;;;;;2.47;0.80;;;;;;;;;;10246921;28;20057;-63
2021/04/16 22:37:28;;;;;;;6.47;0.93;;;;;;;;;;10217445;28;20053;-65
2021/04/16 22:42:30;;;;;;;3.97;1.00;;;;;;;;;;10205170;28;20108;-63
2021/04/16 22:47:27;;;;;;;3.53;0.88;;;;;;;;;;10206370;28;20053;-62
2021/04/16 22:52:29;;;;;;;1.63;0.80;;;;;;;;;;10211368;28;20073;-62
2021/04/16 22:57:29;;;;;;;4.07;0.98;;;;;;;;;;10212468;28;20138;-63
2021/04/16 23:02:26;;;;;;;2.33;0.82;;;;;;;;;;10216805;28;20126;-61
2021/04/16 23:07:29;;;;;;;3.13;0.77;;;;;;;;;;10207092;28;20049;-62
2021/04/16 23:12:31;;;;;;;5.40;0.60;;;;;;;;;;10208801;28;20464;-62
2021/04/16 23:17:28;;;;;;;6.75;1.42;;;;;;;;;;10219969;28;20311;-62
2021/04/16 23:22:28;;;;;;;8.50;1.10;;;;;;;;;;10206111;28;20046;-60
2021/04/16 23:27:37;;;;;;;3.05;0.57;;;;;;;;;;10218958;28;20034;-58
2021/04/16 23:32:34;;;;;;;7.15;1.17;;;;;;;;;;10217027;28;20074;-62
2021/04/16 23:37:44;;;;;;;4.07;1.53;;;;;;;;;;10207054;28;20092;-61
2021/04/16 23:42:42;;;;;;;6.93;1.15;;;;;;;;;;10198097;28;20046;-62
2021/04/16 23:47:39;;;;;;;5.47;1.00;;;;;;;;;;10204557;28;20588;-61
2021/04/16 23:52:38;;;;;;;2.33;0.90;;;;;;;;;;10203142;28;20045;-59
2021/04/16 23:57:35;;;;;;;1.55;0.65;;;;;;;;;;10213655;28;20042;-60
